Airfield :
LOGIN :

Register | Disclaimer

   EN    FR    IT 

 










Legend :    VFR   Marginal VFR   IFR   Intensive IFR   Very Intensive IFR
Visi :
Ceiling :
>= 8 km
>= 3000ft
5 to 8 km
1000 to 3000 ft
1500m to 5 km
500 to 1000 ft
800 to 1500m
200 to 500 ft
< 800m
< 200 ft
Symbols :   Thunderstorms  Fog  Heavy snow  Heavy precipitations  Wind > 20 kt
SIGMETs :     Misc.  Thunderstorms  Icing  Turbulence  Mountain Waves  Volcanic Ashes






- Airport Elevation : 257 ft
- IATA code : MAN


EGCC - Manchester

CURRENT METAR :
  • 252150Z AUTO 19004KT 150V230 9999 OVC007 07/05 Q1012

EXPIRED METARs :
  • 252120Z AUTO 18004KT 130V240 9999 OVC007 06/05 Q1012 NOSIG
  • 252050Z AUTO 18004KT 140V220 9999 OVC007 06/05 Q1012
  • 252020Z AUTO 17004KT 130V210 9999 BKN008 OVC011 06/05 Q1012
  • 251950Z AUTO VRB03KT 8000 BKN009 OVC012 06/05 Q1013
  • 251920Z AUTO 18004KT 140V230 7000 OVC009 06/05 Q1013

TAF AMD TAF EGCC
Valid from the 25 at 20:00 until the 27 at 00:00 UTC


252035Z 2520/2624 20006KT 9999 BKN007
TEMPO 2520/2602 3000 -DZ BR
PROB30
TEMPO 2520/2602 1200 DZ BKN004
BECMG 2602/2605 SCT025
TEMPO 2609/2614 7000 RA BKN010
PROB30
TEMPO 2609/2613 18015G25KT
BECMG 2613/2616 26010KT
BECMG 2616/2618 VRB03KT
BECMG 2621/2624 19012KT
ATIS : +44 161 499 2324



MET'MAP, your aeronautical weather chart ! - Copyright ORBIFLY December 2007 - Disclaimer

ORBIFLY MET'MAP TEAM :

Programming & Development : Alexandra Zaïnal
Concept & original design : Baudouin d'Aumeries
Assistance for programming : Marc-Olivier Méhu
Technical & hardware support : Manuel Goepfert

Contact : metmap@orbifly.com




SOURCES & CREDITS :

   NOAA